createdAt,value
2018-02-20T00:01:03.530Z,91.75
2018-02-20T00:03:31.107Z,91.63
2018-02-20T00:05:58.676Z,91.98
2018-02-20T00:08:26.282Z,91.90
2018-02-20T00:10:53.855Z,91.84
2018-02-20T00:13:21.417Z,91.38
2018-02-20T00:15:48.989Z,91.48
2018-02-20T00:18:16.554Z,91.51
2018-02-20T00:20:44.140Z,91.28
2018-02-20T00:23:11.710Z,91.25
2018-02-20T00:25:39.328Z,91.30
2018-02-20T00:28:06.896Z,91.34
2018-02-20T00:30:34.468Z,91.18
2018-02-20T00:33:02.044Z,91.12
2018-02-20T00:35:29.608Z,91.23
2018-02-20T00:37:57.186Z,91.03
2018-02-20T00:40:24.750Z,91.15
2018-02-20T00:42:52.363Z,91.23
2018-02-20T00:45:19.934Z,91.34
2018-02-20T00:47:47.503Z,91.48
2018-02-20T00:50:15.084Z,91.42
2018-02-20T00:52:42.649Z,91.12
2018-02-20T00:55:10.217Z,91.03
2018-02-20T00:57:37.789Z,91.29
2018-02-20T01:00:05.407Z,91.29
2018-02-20T01:02:32.973Z,91.11
2018-02-20T01:05:00.538Z,91.09
2018-02-20T01:07:28.110Z,91.19
2018-02-20T01:09:55.655Z,91.14
2018-02-20T01:12:23.227Z,91.15
2018-02-20T01:14:50.794Z,90.95
2018-02-20T01:17:18.404Z,90.88
2018-02-20T01:19:45.971Z,91.00
2018-02-20T01:22:13.545Z,91.36
2018-02-20T01:24:41.123Z,91.45
2018-02-20T01:27:08.692Z,91.45
2018-02-20T01:29:36.266Z,91.37
2018-02-20T01:32:03.830Z,91.24
2018-02-20T01:34:31.442Z,91.47
2018-02-20T01:36:58.991Z,91.06
2018-02-20T01:39:26.558Z,90.97
2018-02-20T01:41:54.134Z,91.01
2018-02-20T01:44:21.710Z,90.97
2018-02-20T01:46:49.310Z,91.10
2018-02-20T01:49:16.879Z,91.09
2018-02-20T01:51:44.512Z,90.92
2018-02-20T01:54:12.077Z,90.87
2018-02-20T01:56:39.719Z,90.81
2018-02-20T01:59:07.297Z,90.94
2018-02-20T02:01:34.926Z,90.89
2018-02-20T02:04:02.499Z,90.83
2018-02-20T02:06:30.123Z,90.56
2018-02-20T02:08:57.751Z,90.57
2018-02-20T02:11:25.326Z,90.65
2018-02-20T02:13:52.892Z,90.84
2018-02-20T02:16:20.466Z,90.85
2018-02-20T02:18:48.109Z,90.52
2018-02-20T02:21:15.754Z,90.57
2018-02-20T02:23:43.320Z,90.46
2018-02-20T02:26:10.951Z,90.57
2018-02-20T02:28:38.601Z,90.42
2018-02-20T02:31:06.184Z,90.61
2018-02-20T02:33:33.768Z,90.54
2018-02-20T02:36:01.385Z,90.50
2018-02-20T02:38:29.203Z,90.38
2018-02-20T02:40:56.778Z,90.46
2018-02-20T02:43:24.485Z,90.39
2018-02-20T02:45:52.116Z,90.44
2018-02-20T02:48:19.756Z,90.55
2018-02-20T02:50:47.338Z,90.36
2018-02-20T02:53:14.915Z,90.29
2018-02-20T02:55:42.499Z,90.23
2018-02-20T02:58:10.074Z,90.37
2018-02-20T03:00:37.698Z,90.47
2018-02-20T03:03:05.299Z,90.14
2018-02-20T03:05:32.868Z,90.13
2018-02-20T03:08:00.430Z,90.19
2018-02-20T03:10:27.991Z,90.36
2018-02-20T03:12:55.566Z,90.29
2018-02-20T03:15:23.133Z,90.01
2018-02-20T03:17:50.810Z,89.85
2018-02-20T03:20:18.439Z,90.23
2018-02-20T03:22:46.010Z,89.93
2018-02-20T03:25:13.595Z,90.13
2018-02-20T03:27:41.162Z,90.12
2018-02-20T03:30:08.955Z,89.96
2018-02-20T03:32:36.597Z,89.86
2018-02-20T03:35:04.212Z,90.17
2018-02-20T03:37:31.800Z,90.18
2018-02-20T03:39:59.374Z,89.98
2018-02-20T03:42:27.015Z,90.47
2018-02-20T03:44:54.587Z,90.74
2018-02-20T03:47:22.175Z,90.28
2018-02-20T03:49:49.742Z,90.18
2018-02-20T03:52:17.373Z,90.03
2018-02-20T03:54:44.945Z,90.22
2018-02-20T03:57:12.514Z,90.45
2018-02-20T03:59:40.158Z,90.42
2018-02-20T04:02:07.731Z,90.05
2018-02-20T04:04:35.366Z,89.79
2018-02-20T04:07:02.994Z,90.19
2018-02-20T04:09:30.621Z,90.25
2018-02-20T04:11:58.530Z,89.93
2018-02-20T04:14:26.111Z,89.91
2018-02-20T04:16:53.922Z,89.80
2018-02-20T04:19:21.512Z,90.09
2018-02-20T04:21:49.115Z,90.09
2018-02-20T04:24:17.078Z,90.18
2018-02-20T04:26:44.730Z,90.02
2018-02-20T04:29:12.334Z,90.27
2018-02-20T04:31:39.934Z,89.93
2018-02-20T04:34:07.519Z,89.83
2018-02-20T04:36:35.067Z,90.15
2018-02-20T04:39:02.643Z,89.88
2018-02-20T04:41:30.215Z,90.02
2018-02-20T04:43:57.851Z,90.00
2018-02-20T04:46:25.426Z,90.01
2018-02-20T04:48:53.075Z,89.71
2018-02-20T04:51:20.650Z,89.72
2018-02-20T04:53:48.221Z,89.94
2018-02-20T04:56:15.858Z,89.66
2018-02-20T04:58:43.493Z,89.90
2018-02-20T05:01:20.570Z,89.79
2018-02-20T05:03:48.155Z,89.57
2018-02-20T05:06:15.792Z,89.59
2018-02-20T05:08:43.375Z,89.60
2018-02-20T05:11:10.943Z,89.92
2018-02-20T05:13:38.571Z,90.06
2018-02-20T05:16:06.155Z,89.94
2018-02-20T05:18:33.736Z,89.81
2018-02-20T05:21:01.314Z,89.72
2018-02-20T05:23:28.883Z,89.79
2018-02-20T05:25:56.510Z,89.53
2018-02-20T05:28:24.114Z,89.55
2018-02-20T05:30:51.673Z,89.38
2018-02-20T05:33:19.247Z,89.48
2018-02-20T05:35:46.809Z,89.08
2018-02-20T05:38:14.449Z,89.22
2018-02-20T05:40:42.028Z,89.73
2018-02-20T05:43:09.608Z,89.57
2018-02-20T05:45:37.195Z,89.16
2018-02-20T05:48:04.820Z,89.41
2018-02-20T05:50:32.469Z,89.22
2018-02-20T05:53:00.042Z,89.12
2018-02-20T05:55:27.627Z,89.26
2018-02-20T05:57:55.231Z,89.14
2018-02-20T06:00:22.827Z,89.37
2018-02-20T06:02:50.450Z,89.11
2018-02-20T06:05:18.096Z,88.79
2018-02-20T06:07:45.670Z,89.07
2018-02-20T06:10:13.251Z,89.12
2018-02-20T06:12:40.826Z,89.16
2018-02-20T06:15:08.458Z,89.11
2018-02-20T06:17:36.043Z,88.90
2018-02-20T06:20:03.637Z,88.54
2018-02-20T06:22:31.225Z,88.58
2018-02-20T06:24:58.800Z,88.55
2018-02-20T06:27:26.440Z,88.42
2018-02-20T06:29:54.072Z,88.03
2018-02-20T06:32:21.700Z,88.31
2018-02-20T06:34:49.289Z,88.65
2018-02-20T06:37:16.854Z,88.36
2018-02-20T06:39:44.429Z,87.96
2018-02-20T06:42:12.000Z,87.81
2018-02-20T06:44:39.628Z,87.55
2018-02-20T06:47:07.205Z,87.71
2018-02-20T06:49:34.765Z,87.65
2018-02-20T06:52:02.340Z,87.50
2018-02-20T06:54:29.909Z,87.63
2018-02-20T06:56:57.498Z,87.76
2018-02-20T06:59:25.074Z,87.35
2018-02-20T07:01:52.682Z,87.45
2018-02-20T07:04:20.251Z,87.19
2018-02-20T07:06:47.912Z,86.88
2018-02-20T07:09:15.490Z,86.65
2018-02-20T07:11:43.057Z,86.77
2018-02-20T07:14:10.693Z,86.77
2018-02-20T07:16:38.318Z,86.51
2018-02-20T07:19:05.942Z,86.18
2018-02-20T07:21:33.570Z,85.99
2018-02-20T07:24:01.133Z,85.77
2018-02-20T07:26:28.768Z,85.88
2018-02-20T07:28:56.406Z,85.87
2018-02-20T07:31:23.977Z,86.38
2018-02-20T07:33:51.542Z,85.95
2018-02-20T07:36:19.182Z,85.45
2018-02-20T07:38:46.785Z,85.12
2018-02-20T07:41:14.356Z,85.44
2018-02-20T07:43:41.932Z,85.07
2018-02-20T07:46:09.494Z,85.05
2018-02-20T07:48:37.058Z,85.08
2018-02-20T07:51:04.687Z,84.50
2018-02-20T07:53:32.307Z,84.92
2018-02-20T07:55:59.877Z,84.79
2018-02-20T07:58:27.442Z,84.57
2018-02-20T08:00:55.013Z,84.93
2018-02-20T08:03:22.575Z,84.46
2018-02-20T08:05:50.150Z,84.67
2018-02-20T08:08:17.774Z,84.44
2018-02-20T08:10:45.392Z,83.93
2018-02-20T08:13:12.938Z,83.66
2018-02-20T08:15:40.563Z,83.51
2018-02-20T08:18:08.139Z,83.34
2018-02-20T08:20:35.710Z,83.56
2018-02-20T08:23:03.282Z,83.20
2018-02-20T08:25:30.931Z,82.56
2018-02-20T08:27:58.618Z,82.45
2018-02-20T08:30:26.243Z,82.23
2018-02-20T08:32:53.874Z,83.08
2018-02-20T08:35:21.431Z,82.04
2018-02-20T08:37:48.991Z,82.00
2018-02-20T08:40:16.612Z,82.39
2018-02-20T08:42:44.175Z,82.52
2018-02-20T08:45:11.721Z,82.34
2018-02-20T08:47:39.300Z,82.33
2018-02-20T08:50:06.845Z,81.64
2018-02-20T08:52:34.421Z,81.43
2018-02-20T08:55:02.051Z,81.73
2018-02-20T08:57:29.672Z,81.98
2018-02-20T08:59:57.303Z,81.80
2018-02-20T09:02:24.862Z,81.75
2018-02-20T09:04:52.487Z,81.76
2018-02-20T09:07:20.108Z,81.59
2018-02-20T09:09:47.723Z,81.36
2018-02-20T09:12:15.271Z,81.34
2018-02-20T09:14:42.851Z,80.39
2018-02-20T09:17:10.464Z,80.31
2018-02-20T09:19:38.029Z,79.85
2018-02-20T09:22:05.629Z,80.24
2018-02-20T09:24:33.255Z,79.94
2018-02-20T09:27:00.866Z,79.80
2018-02-20T09:29:28.481Z,80.33
2018-02-20T09:31:56.117Z,80.72
2018-02-20T09:34:23.693Z,80.85
2018-02-20T09:36:51.320Z,79.90
2018-02-20T09:39:18.971Z,80.48
2018-02-20T09:41:46.532Z,80.50
2018-02-20T09:44:14.284Z,80.36
2018-02-20T09:46:41.846Z,79.79
2018-02-20T09:49:09.419Z,80.16
2018-02-20T09:51:37.073Z,79.54
2018-02-20T09:54:04.683Z,79.30
2018-02-20T09:56:32.246Z,78.67
2018-02-20T09:58:59.816Z,78.73
2018-02-20T10:01:27.502Z,79.24
2018-02-20T10:03:55.177Z,78.41
2018-02-20T10:06:22.727Z,78.52
2018-02-20T10:08:50.302Z,78.64
2018-02-20T10:11:17.873Z,78.83
2018-02-20T10:13:45.516Z,78.11
2018-02-20T10:16:13.093Z,77.48
2018-02-20T10:18:40.724Z,77.26
2018-02-20T10:21:08.347Z,77.73
2018-02-20T10:23:35.972Z,78.34
2018-02-20T10:26:03.557Z,78.12
2018-02-20T10:28:31.183Z,78.29
2018-02-20T10:30:58.759Z,77.79
2018-02-20T10:33:26.324Z,77.49
2018-02-20T10:35:54.010Z,77.98
2018-02-20T10:38:21.585Z,77.61
2018-02-20T10:40:49.155Z,78.10
2018-02-20T10:43:16.732Z,77.07
2018-02-20T10:45:44.291Z,76.68
2018-02-20T10:48:11.862Z,76.97
2018-02-20T10:50:39.443Z,77.33
2018-02-20T10:53:07.104Z,77.18
2018-02-20T10:55:34.738Z,77.64
2018-02-20T10:58:02.318Z,77.67
2018-02-20T11:00:29.894Z,77.95
2018-02-20T11:02:57.454Z,77.82
2018-02-20T11:05:25.102Z,77.24
2018-02-20T11:07:52.666Z,76.79
2018-02-20T11:10:20.287Z,76.67
2018-02-20T11:12:47.846Z,76.88
2018-02-20T11:15:15.416Z,78.18
2018-02-20T11:17:42.986Z,78.09
2018-02-20T11:20:10.611Z,78.22
2018-02-20T11:22:38.180Z,78.32
2018-02-20T11:25:05.798Z,79.19
2018-02-20T11:27:33.427Z,79.34
2018-02-20T11:30:01.051Z,79.55
2018-02-20T11:32:28.615Z,80.08
2018-02-20T11:34:56.260Z,79.81
2018-02-20T11:37:23.826Z,81.11
2018-02-20T11:40:02.161Z,81.50
2018-02-20T11:42:30.323Z,81.46
2018-02-20T11:44:58.027Z,82.74
2018-02-20T11:47:25.602Z,82.15
2018-02-20T11:49:53.172Z,81.76
2018-02-20T11:52:20.758Z,81.47
2018-02-20T11:54:48.358Z,81.24
2018-02-20T11:57:15.940Z,81.47
2018-02-20T11:59:43.517Z,82.48
2018-02-20T12:02:11.213Z,81.75
2018-02-20T12:04:39.040Z,81.49
2018-02-20T12:07:06.942Z,81.20
2018-02-20T12:09:34.614Z,81.65
2018-02-20T12:12:02.237Z,81.96
2018-02-20T12:14:29.893Z,81.51
2018-02-20T12:16:57.465Z,81.58
2018-02-20T12:19:25.151Z,81.26
2018-02-20T12:21:52.723Z,81.41
2018-02-20T12:24:20.272Z,80.62
2018-02-20T12:26:47.896Z,80.44
2018-02-20T12:29:15.603Z,80.62
2018-02-20T12:31:43.244Z,80.94
2018-02-20T12:34:10.886Z,80.91
2018-02-20T12:36:38.526Z,81.39
2018-02-20T12:39:06.110Z,81.40
2018-02-20T12:41:33.679Z,80.83
2018-02-20T12:44:01.250Z,81.10
2018-02-20T12:46:28.886Z,80.84
2018-02-20T12:48:56.476Z,81.18
2018-02-20T12:51:24.050Z,81.66
2018-02-20T12:53:51.727Z,80.97
2018-02-20T12:56:19.302Z,80.88
2018-02-20T12:58:46.861Z,81.11
2018-02-20T13:01:14.510Z,80.85
2018-02-20T13:03:42.082Z,80.97
2018-02-20T13:06:09.710Z,80.86
2018-02-20T13:08:37.340Z,81.07
2018-02-20T13:11:04.970Z,81.01
2018-02-20T13:13:32.595Z,80.81
2018-02-20T13:16:00.154Z,81.48
2018-02-20T13:18:27.724Z,80.99
2018-02-20T13:23:53.594Z,81.48
2018-02-20T13:26:21.164Z,81.64
2018-02-20T13:28:48.735Z,81.60
2018-02-20T13:31:16.309Z,81.81
2018-02-20T13:33:43.891Z,81.62
2018-02-20T13:36:11.459Z,82.13
2018-02-20T13:38:39.058Z,82.05
2018-02-20T13:41:06.633Z,81.80
2018-02-20T13:43:34.202Z,81.74
2018-02-20T13:46:01.827Z,82.03
2018-02-20T13:48:29.410Z,81.58
2018-02-20T13:50:57.033Z,81.72
2018-02-20T13:53:24.595Z,82.02
2018-02-20T13:55:52.862Z,81.68
2018-02-20T13:58:20.418Z,82.04
2018-02-20T14:00:48.074Z,81.92
2018-02-20T14:03:15.635Z,81.20
2018-02-20T14:05:43.347Z,81.73
2018-02-20T14:08:10.914Z,81.96
2018-02-20T14:10:38.474Z,82.04
2018-02-20T14:13:06.054Z,82.30
2018-02-20T14:15:33.675Z,82.37
2018-02-20T14:18:01.323Z,82.67
2018-02-20T14:20:28.886Z,82.08
2018-02-20T14:22:56.486Z,82.16
2018-02-20T14:25:24.064Z,83.03
2018-02-20T14:27:51.619Z,82.48
2018-02-20T14:30:19.215Z,82.73
2018-02-20T14:32:46.866Z,82.57
2018-02-20T14:37:48.304Z,83.04
2018-02-20T14:40:15.858Z,83.27
2018-02-20T14:42:43.441Z,83.18
2018-02-20T14:45:11.154Z,83.55
2018-02-20T14:47:38.941Z,83.16
2018-02-20T14:50:06.515Z,83.36
2018-02-20T14:52:34.154Z,83.26
2018-02-20T14:55:01.724Z,83.25
2018-02-20T14:57:29.351Z,83.19
2018-02-20T14:59:57.011Z,83.22
2018-02-20T15:02:25.493Z,83.28
2018-02-20T15:04:53.606Z,83.48
2018-02-20T15:07:21.184Z,83.10
2018-02-20T15:09:48.807Z,82.80
2018-02-20T15:12:16.479Z,82.68
2018-02-20T15:14:44.042Z,83.14
2018-02-20T15:17:11.633Z,82.71
2018-02-20T15:19:39.210Z,82.73
2018-02-20T15:22:06.774Z,82.57
2018-02-20T15:24:34.398Z,82.30
2018-02-20T15:27:01.960Z,82.93
2018-02-20T15:29:29.585Z,82.63
2018-02-20T15:31:57.230Z,82.95
2018-02-20T15:34:25.154Z,83.00
2018-02-20T15:36:52.774Z,83.59
2018-02-20T15:39:20.422Z,84.12
2018-02-20T15:41:47.987Z,83.83
2018-02-20T15:44:15.621Z,83.74
2018-02-20T15:46:43.195Z,83.77
2018-02-20T15:49:10.869Z,83.97
2018-02-20T15:51:38.423Z,83.85
2018-02-20T15:54:05.980Z,83.91
2018-02-20T15:56:33.608Z,84.20
2018-02-20T15:59:01.247Z,83.87
2018-02-20T16:01:28.872Z,83.99
2018-02-20T16:03:56.430Z,83.95
2018-02-20T16:06:24.110Z,83.47
2018-02-20T16:08:51.653Z,83.61
2018-02-20T16:11:19.242Z,83.31
2018-02-20T16:13:46.924Z,83.41
2018-02-20T16:16:15.034Z,83.39
2018-02-20T16:18:42.672Z,83.54
2018-02-20T16:21:10.305Z,83.32
2018-02-20T16:26:11.623Z,83.61
2018-02-20T16:28:39.288Z,83.68
2018-02-20T16:31:06.859Z,83.73
2018-02-20T16:33:34.618Z,83.72
2018-02-20T16:36:02.180Z,83.52
2018-02-20T16:38:29.831Z,83.56
2018-02-20T16:40:57.454Z,83.44
2018-02-20T16:43:25.095Z,83.85
2018-02-20T16:45:53.498Z,83.71
2018-02-20T16:48:21.128Z,83.76
2018-02-20T16:50:48.715Z,83.60
2018-02-20T16:53:16.367Z,83.65
2018-02-20T16:55:44.037Z,83.37
2018-02-20T16:58:11.615Z,83.60
2018-02-20T17:00:39.175Z,83.48
2018-02-20T17:03:06.781Z,83.71
2018-02-20T17:05:34.342Z,83.71
2018-02-20T17:08:01.911Z,84.08
2018-02-20T17:10:29.471Z,84.17
2018-02-20T17:12:57.224Z,84.44
2018-02-20T17:15:25.290Z,84.68
2018-02-20T17:17:52.971Z,84.95
2018-02-20T17:20:20.564Z,84.79
2018-02-20T17:22:48.132Z,84.61
2018-02-20T17:25:15.712Z,84.30
2018-02-20T17:27:43.357Z,84.53
2018-02-20T17:30:10.947Z,84.51
2018-02-20T17:32:38.531Z,84.84
2018-02-20T17:35:06.143Z,84.93
2018-02-20T17:37:33.724Z,84.98
2018-02-20T17:40:01.361Z,84.95
2018-02-20T17:42:29.001Z,85.08
2018-02-20T17:44:56.621Z,85.11
2018-02-20T17:47:24.282Z,85.32
2018-02-20T17:49:51.867Z,85.11
2018-02-20T17:52:19.500Z,85.12
2018-02-20T17:54:47.131Z,85.34
2018-02-20T17:57:14.698Z,85.42
2018-02-20T17:59:42.260Z,85.13
2018-02-20T18:02:09.827Z,85.28
2018-02-20T18:04:37.405Z,85.35
2018-02-20T18:07:05.028Z,85.52
2018-02-20T18:09:32.605Z,85.67
2018-02-20T18:12:00.185Z,85.50
2018-02-20T18:14:27.807Z,85.35
2018-02-20T18:16:55.385Z,85.43
2018-02-20T18:19:22.952Z,85.55
2018-02-20T18:21:50.531Z,85.37
2018-02-20T18:24:18.163Z,85.28
2018-02-20T18:26:45.728Z,85.41
2018-02-20T18:29:13.304Z,85.30
2018-02-20T18:31:40.918Z,85.47
2018-02-20T18:34:08.492Z,85.36
2018-02-20T18:36:36.124Z,85.19
2018-02-20T18:39:03.763Z,85.49
2018-02-20T18:41:31.431Z,85.53
2018-02-20T18:43:58.997Z,85.33
2018-02-20T18:46:26.563Z,85.57
2018-02-20T18:48:54.208Z,85.68
2018-02-20T18:51:21.798Z,85.89
2018-02-20T18:53:49.354Z,86.07
2018-02-20T18:56:16.923Z,86.15
2018-02-20T18:58:44.555Z,86.17
2018-02-20T19:01:12.180Z,86.51
2018-02-20T19:03:39.747Z,86.60
2018-02-20T19:06:07.319Z,86.70
2018-02-20T19:08:34.900Z,86.72
2018-02-20T19:11:02.568Z,86.79
2018-02-20T19:13:30.189Z,86.70
2018-02-20T19:15:57.827Z,87.09
2018-02-20T19:18:25.504Z,87.31
2018-02-20T19:20:53.067Z,87.49
2018-02-20T19:23:20.697Z,87.62
2018-02-20T19:25:48.268Z,87.55
2018-02-20T19:28:15.887Z,87.80
2018-02-20T19:30:43.466Z,87.73
2018-02-20T19:33:11.068Z,87.55
2018-02-20T19:35:38.714Z,87.87
2018-02-20T19:38:06.279Z,87.89
2018-02-20T19:40:33.876Z,87.85
2018-02-20T19:43:01.463Z,87.93
2018-02-20T19:45:29.094Z,88.04
2018-02-20T19:47:56.667Z,88.14
2018-02-20T19:50:24.234Z,88.68
2018-02-20T19:52:51.862Z,88.99
2018-02-20T19:55:19.439Z,88.81
2018-02-20T19:57:47.084Z,89.00
2018-02-20T20:00:14.795Z,88.88
2018-02-20T20:02:42.363Z,88.97
2018-02-20T20:05:09.992Z,89.09
2018-02-20T20:07:37.568Z,89.01
2018-02-20T20:10:05.199Z,88.97
2018-02-20T20:12:32.830Z,88.81
2018-02-20T20:15:00.396Z,88.84
2018-02-20T20:17:27.975Z,88.75
2018-02-20T20:19:55.627Z,88.83
2018-02-20T20:22:23.197Z,89.12
2018-02-20T20:24:50.905Z,88.84
2018-02-20T20:27:18.583Z,88.70
2018-02-20T20:29:46.191Z,88.62
2018-02-20T20:32:13.828Z,88.57
2018-02-20T20:34:41.470Z,88.65
2018-02-20T20:37:09.097Z,88.49
2018-02-20T20:39:36.667Z,88.42
2018-02-20T20:42:04.231Z,88.89
2018-02-20T20:44:31.807Z,88.95
2018-02-20T20:46:59.431Z,88.79
2018-02-20T20:49:27.053Z,88.66
2018-02-20T20:51:54.676Z,88.62
2018-02-20T20:54:22.305Z,88.60
2018-02-20T20:56:49.963Z,88.58
2018-02-20T20:59:17.548Z,88.35
2018-02-20T21:01:45.174Z,88.09
2018-02-20T21:04:12.799Z,87.95
2018-02-20T21:06:40.458Z,87.99
2018-02-20T21:09:08.042Z,87.90
2018-02-20T21:11:35.616Z,87.88
2018-02-20T21:14:03.243Z,88.06
2018-02-20T21:16:30.819Z,87.92
2018-02-20T21:18:58.384Z,88.14
2018-02-20T21:21:26.014Z,88.08
2018-02-20T21:23:53.620Z,88.02
2018-02-20T21:26:21.316Z,88.08
2018-02-20T21:28:48.897Z,88.15
2018-02-20T21:31:16.528Z,88.04
2018-02-20T21:33:44.100Z,87.80
2018-02-20T21:36:11.899Z,87.61
2018-02-20T21:38:39.553Z,87.63
2018-02-20T21:41:07.160Z,87.63
2018-02-20T21:43:34.812Z,87.76
2018-02-20T21:46:02.405Z,87.59
2018-02-20T21:48:30.033Z,87.62
2018-02-20T21:50:57.659Z,87.61
2018-02-20T21:53:25.296Z,87.47
2018-02-20T21:55:52.873Z,87.28
2018-02-20T21:58:20.463Z,87.58
2018-02-20T22:00:48.085Z,87.73
2018-02-20T22:03:15.789Z,87.56
2018-02-20T22:05:43.358Z,87.62
2018-02-20T22:08:10.927Z,87.46
2018-02-20T22:10:38.570Z,87.17
2018-02-20T22:13:06.130Z,87.10
2018-02-20T22:15:33.813Z,87.05
2018-02-20T22:18:01.391Z,87.21
2018-02-20T22:20:28.962Z,87.28
2018-02-20T22:22:56.523Z,87.32
2018-02-20T22:25:24.087Z,87.38
2018-02-20T22:27:51.760Z,87.25
2018-02-20T22:30:19.392Z,87.21
2018-02-20T22:32:46.961Z,87.30
2018-02-20T22:35:14.537Z,87.07
2018-02-20T22:37:42.096Z,86.98
2018-02-20T22:40:09.750Z,86.96
2018-02-20T22:42:37.375Z,86.86
2018-02-20T22:45:04.934Z,86.77
2018-02-20T22:47:32.555Z,86.68
2018-02-20T22:50:00.116Z,86.75
2018-02-20T22:52:27.724Z,86.43
2018-02-20T22:54:55.282Z,86.51
2018-02-20T22:57:22.895Z,86.35
2018-02-20T22:59:50.476Z,86.14
2018-02-20T23:02:18.096Z,85.95
2018-02-20T23:04:45.718Z,86.23
2018-02-20T23:07:13.248Z,86.20
2018-02-20T23:09:40.811Z,86.29
2018-02-20T23:12:08.466Z,86.40
2018-02-20T23:14:36.101Z,86.55
2018-02-20T23:17:03.726Z,85.97
2018-02-20T23:19:31.278Z,86.08
2018-02-20T23:21:58.839Z,86.12
2018-02-20T23:24:26.404Z,86.11
2018-02-20T23:26:53.958Z,86.37
2018-02-20T23:29:21.617Z,86.42
2018-02-20T23:31:49.174Z,86.85
2018-02-20T23:36:58.807Z,86.29
2018-02-20T23:39:26.379Z,86.62
2018-02-20T23:41:53.954Z,86.73
2018-02-20T23:44:21.506Z,86.50
2018-02-20T23:46:49.123Z,86.40
2018-02-20T23:49:16.695Z,86.36
2018-02-20T23:51:44.243Z,86.19
2018-02-20T23:54:11.828Z,86.42
2018-02-20T23:56:39.446Z,86.11
2018-02-20T23:59:07.018Z,86.44
